sensor_id;sensor_type;location;lat;lon;timestamp;temperature;humidity
19888;DHT22;10106;51.332;12.336;2023-03-23T00:00:47;12.30;99.90
19888;DHT22;10106;51.332;12.336;2023-03-23T00:03:13;12.30;99.90
19888;DHT22;10106;51.332;12.336;2023-03-23T00:05:39;12.20;99.90
19888;DHT22;10106;51.332;12.336;2023-03-23T00:08:07;12.10;99.90
19888;DHT22;10106;51.332;12.336;2023-03-23T00:13:58;12.20;99.90
19888;DHT22;10106;51.332;12.336;2023-03-23T00:16:28;12.10;99.90
19888;DHT22;10106;51.332;12.336;2023-03-23T00:18:57;12.10;99.90
19888;DHT22;10106;51.332;12.336;2023-03-23T00:21:28;12.10;99.90
19888;DHT22;10106;51.332;12.336;2023-03-23T00:24:03;12.00;99.90
19888;DHT22;10106;51.332;12.336;2023-03-23T00:26:30;12.00;99.90
19888;DHT22;10106;51.332;12.336;2023-03-23T00:29:05;12.10;99.90
19888;DHT22;10106;51.332;12.336;2023-03-23T00:31:32;12.10;99.90
19888;DHT22;10106;51.332;12.336;2023-03-23T00:34:02;12.10;99.90
19888;DHT22;10106;51.332;12.336;2023-03-23T00:36:31;12.10;99.90
19888;DHT22;10106;51.332;12.336;2023-03-23T00:38:57;12.10;99.90
19888;DHT22;10106;51.332;12.336;2023-03-23T00:41:27;12.20;99.90
19888;DHT22;10106;51.332;12.336;2023-03-23T00:43:57;12.20;99.90
19888;DHT22;10106;51.332;12.336;2023-03-23T00:46:26;12.20;99.90
19888;DHT22;10106;51.332;12.336;2023-03-23T00:48:55;12.30;99.90
19888;DHT22;10106;51.332;12.336;2023-03-23T00:51:23;12.30;99.90
19888;DHT22;10106;51.332;12.336;2023-03-23T00:53:49;12.20;99.90
19888;DHT22;10106;51.332;12.336;2023-03-23T00:56:15;12.20;99.90
19888;DHT22;10106;51.332;12.336;2023-03-23T00:58:41;12.20;99.90
19888;DHT22;10106;51.332;12.336;2023-03-23T01:01:07;12.20;99.90
19888;DHT22;10106;51.332;12.336;2023-03-23T01:03:34;12.10;99.90
19888;DHT22;10106;51.332;12.336;2023-03-23T01:06:09;12.10;99.90
19888;DHT22;10106;51.332;12.336;2023-03-23T01:08:41;11.90;99.90
19888;DHT22;10106;51.332;12.336;2023-03-23T01:11:13;11.90;99.90
19888;DHT22;10106;51.332;12.336;2023-03-23T01:13:39;11.80;99.90
19888;DHT22;10106;51.332;12.336;2023-03-23T01:16:06;11.70;99.90
19888;DHT22;10106;51.332;12.336;2023-03-23T01:18:31;11.70;99.90
19888;DHT22;10106;51.332;12.336;2023-03-23T01:20:57;11.70;99.90
19888;DHT22;10106;51.332;12.336;2023-03-23T01:25:49;11.70;99.90
19888;DHT22;10106;51.332;12.336;2023-03-23T01:28:15;11.80;99.90
19888;DHT22;10106;51.332;12.336;2023-03-23T01:30:41;11.80;99.90
19888;DHT22;10106;51.332;12.336;2023-03-23T01:33:09;11.80;99.90
19888;DHT22;10106;51.332;12.336;2023-03-23T01:35:37;11.80;99.90
19888;DHT22;10106;51.332;12.336;2023-03-23T01:38:03;11.90;99.90
19888;DHT22;10106;51.332;12.336;2023-03-23T01:40:29;11.90;99.90
19888;DHT22;10106;51.332;12.336;2023-03-23T01:42:54;11.90;99.90
19888;DHT22;10106;51.332;12.336;2023-03-23T01:50:38;11.90;99.90
19888;DHT22;10106;51.332;12.336;2023-03-23T01:53:08;11.90;99.90
19888;DHT22;10106;51.332;12.336;2023-03-23T01:55:38;11.80;99.90
19888;DHT22;10106;51.332;12.336;2023-03-23T01:58:04;11.80;99.90
19888;DHT22;10106;51.332;12.336;2023-03-23T02:00:31;11.70;99.90
19888;DHT22;10106;51.332;12.336;2023-03-23T02:02:57;11.70;99.90
19888;DHT22;10106;51.332;12.336;2023-03-23T02:05:30;11.70;99.90
19888;DHT22;10106;51.332;12.336;2023-03-23T02:07:58;11.70;99.90
19888;DHT22;10106;51.332;12.336;2023-03-23T02:10:29;11.80;99.90
19888;DHT22;10106;51.332;12.336;2023-03-23T02:12:56;11.80;99.90
19888;DHT22;10106;51.332;12.336;2023-03-23T02:15:25;11.90;99.90
19888;DHT22;10106;51.332;12.336;2023-03-23T02:20:41;12.10;99.90
19888;DHT22;10106;51.332;12.336;2023-03-23T02:25:58;12.30;99.90
19888;DHT22;10106;51.332;12.336;2023-03-23T02:34:26;12.40;99.90
19888;DHT22;10106;51.332;12.336;2023-03-23T02:37:00;12.40;99.90
19888;DHT22;10106;51.332;12.336;2023-03-23T02:39:50;12.40;99.90
19888;DHT22;10106;51.332;12.336;2023-03-23T02:42:28;12.50;99.90
19888;DHT22;10106;51.332;12.336;2023-03-23T02:44:59;12.50;99.90
19888;DHT22;10106;51.332;12.336;2023-03-23T02:47:29;12.60;99.90
19888;DHT22;10106;51.332;12.336;2023-03-23T02:49:57;12.70;99.90
19888;DHT22;10106;51.332;12.336;2023-03-23T02:52:29;12.80;99.90
19888;DHT22;10106;51.332;12.336;2023-03-23T02:54:56;12.90;99.90
19888;DHT22;10106;51.332;12.336;2023-03-23T02:57:25;12.90;99.90
19888;DHT22;10106;51.332;12.336;2023-03-23T02:59:51;12.90;99.90
19888;DHT22;10106;51.332;12.336;2023-03-23T03:02:47;12.80;99.90
19888;DHT22;10106;51.332;12.336;2023-03-23T03:13:47;12.60;99.90
19888;DHT22;10106;51.332;12.336;2023-03-23T03:18:57;12.60;99.90
19888;DHT22;10106;51.332;12.336;2023-03-23T03:21:30;12.60;99.90
19888;DHT22;10106;51.332;12.336;2023-03-23T03:24:01;12.70;99.90
19888;DHT22;10106;51.332;12.336;2023-03-23T03:26:28;12.60;99.90
19888;DHT22;10106;51.332;12.336;2023-03-23T03:28:56;12.60;99.90
19888;DHT22;10106;51.332;12.336;2023-03-23T03:31:28;12.60;99.90
19888;DHT22;10106;51.332;12.336;2023-03-23T03:33:54;12.60;99.90
19888;DHT22;10106;51.332;12.336;2023-03-23T03:36:26;12.60;99.90
19888;DHT22;10106;51.332;12.336;2023-03-23T03:38:53;12.60;99.90
19888;DHT22;10106;51.332;12.336;2023-03-23T03:41:19;12.50;99.90
19888;DHT22;10106;51.332;12.336;2023-03-23T03:43:45;12.50;99.90
19888;DHT22;10106;51.332;12.336;2023-03-23T03:46:11;12.50;99.90
19888;DHT22;10106;51.332;12.336;2023-03-23T03:48:37;12.40;99.90
19888;DHT22;10106;51.332;12.336;2023-03-23T03:51:03;12.40;99.90
19888;DHT22;10106;51.332;12.336;2023-03-23T03:53:29;12.40;99.90
19888;DHT22;10106;51.332;12.336;2023-03-23T03:55:56;12.50;99.90
19888;DHT22;10106;51.332;12.336;2023-03-23T03:58:22;12.50;99.90
19888;DHT22;10106;51.332;12.336;2023-03-23T04:00:48;12.50;99.90
19888;DHT22;10106;51.332;12.336;2023-03-23T04:03:15;12.60;99.90
19888;DHT22;10106;51.332;12.336;2023-03-23T04:05:42;12.60;99.90
19888;DHT22;10106;51.332;12.336;2023-03-23T04:08:10;12.60;99.90
19888;DHT22;10106;51.332;12.336;2023-03-23T04:10:36;12.60;99.90
19888;DHT22;10106;51.332;12.336;2023-03-23T04:13:02;12.60;99.90
19888;DHT22;10106;51.332;12.336;2023-03-23T04:15:30;12.50;99.90
19888;DHT22;10106;51.332;12.336;2023-03-23T04:17:56;12.50;99.90
19888;DHT22;10106;51.332;12.336;2023-03-23T04:20:23;12.50;99.90
19888;DHT22;10106;51.332;12.336;2023-03-23T04:22:49;12.60;99.90
19888;DHT22;10106;51.332;12.336;2023-03-23T04:25:16;12.60;99.90
19888;DHT22;10106;51.332;12.336;2023-03-23T04:27:43;12.60;99.90
19888;DHT22;10106;51.332;12.336;2023-03-23T04:30:10;12.60;99.90
19888;DHT22;10106;51.332;12.336;2023-03-23T04:32:38;12.60;99.90
19888;DHT22;10106;51.332;12.336;2023-03-23T04:35:06;12.60;99.90
19888;DHT22;10106;51.332;12.336;2023-03-23T04:37:32;12.60;99.90
19888;DHT22;10106;51.332;12.336;2023-03-23T04:39:59;12.60;99.90
19888;DHT22;10106;51.332;12.336;2023-03-23T04:42:32;12.50;99.90
19888;DHT22;10106;51.332;12.336;2023-03-23T04:44:58;12.50;99.90
19888;DHT22;10106;51.332;12.336;2023-03-23T04:47:26;12.40;99.90
19888;DHT22;10106;51.332;12.336;2023-03-23T04:49:56;12.40;99.90
19888;DHT22;10106;51.332;12.336;2023-03-23T04:52:24;12.40;99.90
19888;DHT22;10106;51.332;12.336;2023-03-23T04:54:51;12.40;99.90
19888;DHT22;10106;51.332;12.336;2023-03-23T04:57:17;12.40;99.90
19888;DHT22;10106;51.332;12.336;2023-03-23T04:59:43;12.40;99.90
19888;DHT22;10106;51.332;12.336;2023-03-23T05:02:10;12.50;99.90
19888;DHT22;10106;51.332;12.336;2023-03-23T05:04:36;12.50;99.90
19888;DHT22;10106;51.332;12.336;2023-03-23T05:07:03;12.50;99.90
19888;DHT22;10106;51.332;12.336;2023-03-23T05:09:29;12.50;99.90
19888;DHT22;10106;51.332;12.336;2023-03-23T05:11:55;12.60;99.90
19888;DHT22;10106;51.332;12.336;2023-03-23T05:14:21;12.60;99.90
19888;DHT22;10106;51.332;12.336;2023-03-23T05:16:47;12.60;99.90
19888;DHT22;10106;51.332;12.336;2023-03-23T05:19:14;12.60;99.90
19888;DHT22;10106;51.332;12.336;2023-03-23T05:21:40;12.60;99.90
19888;DHT22;10106;51.332;12.336;2023-03-23T05:24:06;12.60;99.90
19888;DHT22;10106;51.332;12.336;2023-03-23T05:26:32;12.60;99.90
19888;DHT22;10106;51.332;12.336;2023-03-23T05:28:58;12.60;99.90
19888;DHT22;10106;51.332;12.336;2023-03-23T05:31:24;12.60;99.90
19888;DHT22;10106;51.332;12.336;2023-03-23T05:33:50;12.60;99.90
19888;DHT22;10106;51.332;12.336;2023-03-23T05:36:16;12.70;99.90
19888;DHT22;10106;51.332;12.336;2023-03-23T05:38:42;12.70;99.90
19888;DHT22;10106;51.332;12.336;2023-03-23T05:41:11;12.70;99.90
19888;DHT22;10106;51.332;12.336;2023-03-23T05:43:37;12.70;99.90
19888;DHT22;10106;51.332;12.336;2023-03-23T05:46:03;12.70;99.90
19888;DHT22;10106;51.332;12.336;2023-03-23T05:48:29;12.80;99.90
19888;DHT22;10106;51.332;12.336;2023-03-23T05:50:54;12.80;99.90
19888;DHT22;10106;51.332;12.336;2023-03-23T05:53:20;12.80;99.90
19888;DHT22;10106;51.332;12.336;2023-03-23T05:55:46;12.80;99.90
19888;DHT22;10106;51.332;12.336;2023-03-23T05:58:12;12.80;99.90
19888;DHT22;10106;51.332;12.336;2023-03-23T06:05:48;12.80;99.90
19888;DHT22;10106;51.332;12.336;2023-03-23T06:08:14;12.70;99.90
19888;DHT22;10106;51.332;12.336;2023-03-23T06:10:40;12.70;99.90
19888;DHT22;10106;51.332;12.336;2023-03-23T06:13:05;12.70;99.90
19888;DHT22;10106;51.332;12.336;2023-03-23T06:15:31;12.60;99.90
19888;DHT22;10106;51.332;12.336;2023-03-23T06:18:02;12.60;99.90
19888;DHT22;10106;51.332;12.336;2023-03-23T06:20:28;12.50;99.90
19888;DHT22;10106;51.332;12.336;2023-03-23T06:22:54;12.50;99.90
19888;DHT22;10106;51.332;12.336;2023-03-23T06:25:21;12.50;99.90
19888;DHT22;10106;51.332;12.336;2023-03-23T06:27:47;12.50;99.90
19888;DHT22;10106;51.332;12.336;2023-03-23T06:30:13;12.50;99.90
19888;DHT22;10106;51.332;12.336;2023-03-23T06:32:42;12.50;99.90
19888;DHT22;10106;51.332;12.336;2023-03-23T06:35:11;12.50;99.90
19888;DHT22;10106;51.332;12.336;2023-03-23T06:37:37;12.50;99.90
19888;DHT22;10106;51.332;12.336;2023-03-23T06:40:04;12.50;99.90
19888;DHT22;10106;51.332;12.336;2023-03-23T06:42:34;12.50;99.90
19888;DHT22;10106;51.332;12.336;2023-03-23T06:45:00;12.50;99.90
19888;DHT22;10106;51.332;12.336;2023-03-23T06:47:27;12.50;99.90
19888;DHT22;10106;51.332;12.336;2023-03-23T06:49:55;12.50;99.90
19888;DHT22;10106;51.332;12.336;2023-03-23T06:52:22;12.40;99.90
19888;DHT22;10106;51.332;12.336;2023-03-23T06:54:49;12.40;99.90
19888;DHT22;10106;51.332;12.336;2023-03-23T06:57:15;12.50;99.90
19888;DHT22;10106;51.332;12.336;2023-03-23T06:59:41;12.60;99.90
19888;DHT22;10106;51.332;12.336;2023-03-23T07:02:09;12.70;99.90
19888;DHT22;10106;51.332;12.336;2023-03-23T07:04:37;12.80;99.90
19888;DHT22;10106;51.332;12.336;2023-03-23T07:07:04;12.90;99.90
19888;DHT22;10106;51.332;12.336;2023-03-23T07:09:30;13.00;99.90
19888;DHT22;10106;51.332;12.336;2023-03-23T07:11:56;13.00;99.90
19888;DHT22;10106;51.332;12.336;2023-03-23T07:14:22;13.10;99.90
19888;DHT22;10106;51.332;12.336;2023-03-23T07:16:48;13.10;99.90
19888;DHT22;10106;51.332;12.336;2023-03-23T07:19:14;13.10;99.90
19888;DHT22;10106;51.332;12.336;2023-03-23T07:21:39;13.10;99.90
19888;DHT22;10106;51.332;12.336;2023-03-23T07:24:05;13.10;99.90
19888;DHT22;10106;51.332;12.336;2023-03-23T07:26:32;13.10;99.90
19888;DHT22;10106;51.332;12.336;2023-03-23T07:28:57;13.00;99.90
19888;DHT22;10106;51.332;12.336;2023-03-23T07:31:23;13.10;99.90
19888;DHT22;10106;51.332;12.336;2023-03-23T07:33:49;13.10;99.90
19888;DHT22;10106;51.332;12.336;2023-03-23T07:36:14;13.10;99.90
19888;DHT22;10106;51.332;12.336;2023-03-23T07:38:40;13.10;99.90
19888;DHT22;10106;51.332;12.336;2023-03-23T07:41:06;13.10;99.90
19888;DHT22;10106;51.332;12.336;2023-03-23T07:43:32;13.20;99.90
19888;DHT22;10106;51.332;12.336;2023-03-23T07:45:58;13.20;99.90
19888;DHT22;10106;51.332;12.336;2023-03-23T07:48:24;13.30;99.90
19888;DHT22;10106;51.332;12.336;2023-03-23T07:50:50;13.30;99.90
19888;DHT22;10106;51.332;12.336;2023-03-23T07:53:15;13.30;99.90
19888;DHT22;10106;51.332;12.336;2023-03-23T07:55:41;13.30;99.90
19888;DHT22;10106;51.332;12.336;2023-03-23T07:58:07;13.30;99.90
19888;DHT22;10106;51.332;12.336;2023-03-23T08:00:34;13.30;99.90
19888;DHT22;10106;51.332;12.336;2023-03-23T08:03:00;13.30;99.90
19888;DHT22;10106;51.332;12.336;2023-03-23T08:05:28;13.40;99.90
19888;DHT22;10106;51.332;12.336;2023-03-23T08:07:54;13.40;99.90
19888;DHT22;10106;51.332;12.336;2023-03-23T08:10:21;13.50;99.90
19888;DHT22;10106;51.332;12.336;2023-03-23T08:12:51;13.60;99.90
19888;DHT22;10106;51.332;12.336;2023-03-23T08:15:17;13.70;99.90
19888;DHT22;10106;51.332;12.336;2023-03-23T08:17:44;13.60;99.90
19888;DHT22;10106;51.332;12.336;2023-03-23T08:20:11;13.70;99.90
19888;DHT22;10106;51.332;12.336;2023-03-23T08:22:42;13.70;99.90
19888;DHT22;10106;51.332;12.336;2023-03-23T08:25:12;13.70;99.90
19888;DHT22;10106;51.332;12.336;2023-03-23T08:27:38;13.60;99.90
19888;DHT22;10106;51.332;12.336;2023-03-23T08:30:11;13.50;99.90
19888;DHT22;10106;51.332;12.336;2023-03-23T08:32:37;13.50;99.90
19888;DHT22;10106;51.332;12.336;2023-03-23T08:35:03;13.50;99.90
19888;DHT22;10106;51.332;12.336;2023-03-23T08:37:29;13.40;99.90
19888;DHT22;10106;51.332;12.336;2023-03-23T08:39:55;13.50;99.90
19888;DHT22;10106;51.332;12.336;2023-03-23T08:42:25;13.50;99.90
19888;DHT22;10106;51.332;12.336;2023-03-23T08:44:52;13.60;99.90
19888;DHT22;10106;51.332;12.336;2023-03-23T08:47:18;13.70;99.90
19888;DHT22;10106;51.332;12.336;2023-03-23T08:49:45;13.80;99.90
19888;DHT22;10106;51.332;12.336;2023-03-23T08:52:11;14.20;99.90
19888;DHT22;10106;51.332;12.336;2023-03-23T08:54:37;14.70;99.90
19888;DHT22;10106;51.332;12.336;2023-03-23T08:57:03;15.40;99.90
19888;DHT22;10106;51.332;12.336;2023-03-23T08:59:29;15.90;99.90
19888;DHT22;10106;51.332;12.336;2023-03-23T09:01:55;15.90;99.90
19888;DHT22;10106;51.332;12.336;2023-03-23T09:04:21;15.80;99.90
19888;DHT22;10106;51.332;12.336;2023-03-23T09:06:47;15.70;99.90
19888;DHT22;10106;51.332;12.336;2023-03-23T09:09:13;15.70;99.90
19888;DHT22;10106;51.332;12.336;2023-03-23T09:11:40;15.70;99.90
19888;DHT22;10106;51.332;12.336;2023-03-23T09:14:07;15.80;99.90
19888;DHT22;10106;51.332;12.336;2023-03-23T09:16:34;16.00;99.90
19888;DHT22;10106;51.332;12.336;2023-03-23T09:19:00;16.10;99.90
19888;DHT22;10106;51.332;12.336;2023-03-23T09:21:27;16.20;99.90
19888;DHT22;10106;51.332;12.336;2023-03-23T09:23:54;16.30;99.90
19888;DHT22;10106;51.332;12.336;2023-03-23T09:26:24;16.40;99.90
19888;DHT22;10106;51.332;12.336;2023-03-23T09:28:50;16.40;99.90
19888;DHT22;10106;51.332;12.336;2023-03-23T09:31:17;16.30;99.90
19888;DHT22;10106;51.332;12.336;2023-03-23T09:33:46;16.30;99.90
19888;DHT22;10106;51.332;12.336;2023-03-23T09:36:12;16.10;99.90
19888;DHT22;10106;51.332;12.336;2023-03-23T09:38:40;16.10;99.90
19888;DHT22;10106;51.332;12.336;2023-03-23T09:43:53;15.90;99.90
19888;DHT22;10106;51.332;12.336;2023-03-23T09:52:18;16.20;99.90
19888;DHT22;10106;51.332;12.336;2023-03-23T09:54:52;16.30;99.90
19888;DHT22;10106;51.332;12.336;2023-03-23T09:57:26;16.40;99.90
19888;DHT22;10106;51.332;12.336;2023-03-23T10:02:39;16.30;99.90
19888;DHT22;10106;51.332;12.336;2023-03-23T10:05:35;16.30;99.90
19888;DHT22;10106;51.332;12.336;2023-03-23T10:08:11;16.30;99.90
19888;DHT22;10106;51.332;12.336;2023-03-23T10:10:53;16.20;99.90
19888;DHT22;10106;51.332;12.336;2023-03-23T10:16:12;16.30;99.90
19888;DHT22;10106;51.332;12.336;2023-03-23T10:21:41;16.40;99.90
19888;DHT22;10106;51.332;12.336;2023-03-23T10:24:14;16.40;99.90
19888;DHT22;10106;51.332;12.336;2023-03-23T10:29:35;16.40;99.90
19888;DHT22;10106;51.332;12.336;2023-03-23T10:32:14;16.40;99.90
19888;DHT22;10106;51.332;12.336;2023-03-23T10:34:57;16.50;99.90
19888;DHT22;10106;51.332;12.336;2023-03-23T10:37:35;16.60;99.90
19888;DHT22;10106;51.332;12.336;2023-03-23T10:40:04;16.70;99.90
19888;DHT22;10106;51.332;12.336;2023-03-23T10:42:37;16.80;99.90
19888;DHT22;10106;51.332;12.336;2023-03-23T10:45:24;16.90;99.90
19888;DHT22;10106;51.332;12.336;2023-03-23T10:47:56;16.90;99.90
19888;DHT22;10106;51.332;12.336;2023-03-23T10:50:30;16.80;99.90
19888;DHT22;10106;51.332;12.336;2023-03-23T10:52:58;16.70;99.90
19888;DHT22;10106;51.332;12.336;2023-03-23T10:55:36;16.70;99.90
19888;DHT22;10106;51.332;12.336;2023-03-23T10:58:26;16.70;99.90
19888;DHT22;10106;51.332;12.336;2023-03-23T11:00:55;16.60;99.90
19888;DHT22;10106;51.332;12.336;2023-03-23T11:03:43;16.70;99.90
19888;DHT22;10106;51.332;12.336;2023-03-23T11:06:12;16.70;99.90
19888;DHT22;10106;51.332;12.336;2023-03-23T11:08:52;16.60;99.90
19888;DHT22;10106;51.332;12.336;2023-03-23T11:11:37;16.70;99.90
19888;DHT22;10106;51.332;12.336;2023-03-23T11:14:20;16.80;99.90
19888;DHT22;10106;51.332;12.336;2023-03-23T11:16:55;16.80;99.90
19888;DHT22;10106;51.332;12.336;2023-03-23T11:19:36;16.80;99.90
19888;DHT22;10106;51.332;12.336;2023-03-23T11:22:09;16.80;99.90
19888;DHT22;10106;51.332;12.336;2023-03-23T11:24:44;16.90;99.90
19888;DHT22;10106;51.332;12.336;2023-03-23T11:27:11;16.70;99.90
19888;DHT22;10106;51.332;12.336;2023-03-23T11:29:56;16.60;99.90
19888;DHT22;10106;51.332;12.336;2023-03-23T11:32:28;16.50;99.90
19888;DHT22;10106;51.332;12.336;2023-03-23T11:34:58;16.50;99.90
19888;DHT22;10106;51.332;12.336;2023-03-23T11:37:37;16.50;99.90
19888;DHT22;10106;51.332;12.336;2023-03-23T11:42:46;16.40;99.90
19888;DHT22;10106;51.332;12.336;2023-03-23T11:48:40;16.30;99.90
19888;DHT22;10106;51.332;12.336;2023-03-23T11:51:21;16.10;99.90
19888;DHT22;10106;51.332;12.336;2023-03-23T11:54:14;16.10;99.90
19888;DHT22;10106;51.332;12.336;2023-03-23T11:56:44;16.00;99.90
19888;DHT22;10106;51.332;12.336;2023-03-23T11:59:40;16.20;99.90
19888;DHT22;10106;51.332;12.336;2023-03-23T12:02:28;16.40;99.90
19888;DHT22;10106;51.332;12.336;2023-03-23T12:05:30;16.60;99.90
19888;DHT22;10106;51.332;12.336;2023-03-23T12:08:27;16.70;99.90
19888;DHT22;10106;51.332;12.336;2023-03-23T12:11:07;16.90;99.90
19888;DHT22;10106;51.332;12.336;2023-03-23T12:27:52;17.30;99.90
19888;DHT22;10106;51.332;12.336;2023-03-23T12:33:12;17.30;99.90
19888;DHT22;10106;51.332;12.336;2023-03-23T12:44:25;17.20;99.90
19888;DHT22;10106;51.332;12.336;2023-03-23T12:49:49;17.50;99.90
19888;DHT22;10106;51.332;12.336;2023-03-23T12:52:21;17.50;99.90
19888;DHT22;10106;51.332;12.336;2023-03-23T12:57:41;17.80;99.90
19888;DHT22;10106;51.332;12.336;2023-03-23T13:03:28;18.10;99.90
19888;DHT22;10106;51.332;12.336;2023-03-23T13:11:31;17.70;99.90
19888;DHT22;10106;51.332;12.336;2023-03-23T13:14:18;17.70;99.90
19888;DHT22;10106;51.332;12.336;2023-03-23T13:16:59;17.70;99.90
19888;DHT22;10106;51.332;12.336;2023-03-23T13:19:53;17.50;99.90
19888;DHT22;10106;51.332;12.336;2023-03-23T13:22:32;17.60;99.90
19888;DHT22;10106;51.332;12.336;2023-03-23T13:25:19;17.40;99.90
19888;DHT22;10106;51.332;12.336;2023-03-23T13:28:00;17.30;99.90
19888;DHT22;10106;51.332;12.336;2023-03-23T13:30:27;17.20;99.90
19888;DHT22;10106;51.332;12.336;2023-03-23T13:33:03;17.10;99.90
19888;DHT22;10106;51.332;12.336;2023-03-23T13:35:34;16.90;99.90
19888;DHT22;10106;51.332;12.336;2023-03-23T13:38:01;16.70;99.90
19888;DHT22;10106;51.332;12.336;2023-03-23T13:40:29;16.60;99.90
19888;DHT22;10106;51.332;12.336;2023-03-23T13:42:58;16.40;99.90
19888;DHT22;10106;51.332;12.336;2023-03-23T13:45:42;16.30;99.90
19888;DHT22;10106;51.332;12.336;2023-03-23T13:51:00;16.10;99.90
19888;DHT22;10106;51.332;12.336;2023-03-23T13:53:45;16.10;99.90
19888;DHT22;10106;51.332;12.336;2023-03-23T13:58:51;16.30;99.90
19888;DHT22;10106;51.332;12.336;2023-03-23T14:01:37;16.20;99.90
19888;DHT22;10106;51.332;12.336;2023-03-23T14:04:19;16.20;99.90
19888;DHT22;10106;51.332;12.336;2023-03-23T14:06:49;16.10;99.90
19888;DHT22;10106;51.332;12.336;2023-03-23T14:09:26;16.00;99.90
19888;DHT22;10106;51.332;12.336;2023-03-23T14:12:02;16.00;99.90
19888;DHT22;10106;51.332;12.336;2023-03-23T14:14:40;16.00;99.90
19888;DHT22;10106;51.332;12.336;2023-03-23T14:17:17;16.00;99.90
19888;DHT22;10106;51.332;12.336;2023-03-23T14:19:50;15.90;99.90
19888;DHT22;10106;51.332;12.336;2023-03-23T14:22:25;15.90;99.90
19888;DHT22;10106;51.332;12.336;2023-03-23T14:24:58;15.90;99.90
19888;DHT22;10106;51.332;12.336;2023-03-23T14:27:24;15.80;99.90
19888;DHT22;10106;51.332;12.336;2023-03-23T14:30:00;15.90;99.90
19888;DHT22;10106;51.332;12.336;2023-03-23T14:32:29;15.90;99.90
19888;DHT22;10106;51.332;12.336;2023-03-23T14:34:56;15.90;99.90
19888;DHT22;10106;51.332;12.336;2023-03-23T14:37:23;15.90;99.90
19888;DHT22;10106;51.332;12.336;2023-03-23T14:39:53;15.90;99.90
19888;DHT22;10106;51.332;12.336;2023-03-23T14:42:45;16.00;99.90
19888;DHT22;10106;51.332;12.336;2023-03-23T14:45:15;16.00;99.90
19888;DHT22;10106;51.332;12.336;2023-03-23T14:48:01;16.00;99.90
19888;DHT22;10106;51.332;12.336;2023-03-23T14:50:30;16.00;99.90
19888;DHT22;10106;51.332;12.336;2023-03-23T14:53:23;15.90;99.90
19888;DHT22;10106;51.332;12.336;2023-03-23T14:55:52;15.80;99.90
19888;DHT22;10106;51.332;12.336;2023-03-23T14:58:20;15.70;99.90
19888;DHT22;10106;51.332;12.336;2023-03-23T15:03:17;15.60;99.90
19888;DHT22;10106;51.332;12.336;2023-03-23T15:05:48;15.50;99.90
19888;DHT22;10106;51.332;12.336;2023-03-23T15:08:25;15.50;99.90
19888;DHT22;10106;51.332;12.336;2023-03-23T15:11:08;15.50;99.90
19888;DHT22;10106;51.332;12.336;2023-03-23T15:13:37;15.40;99.90
19888;DHT22;10106;51.332;12.336;2023-03-23T15:16:17;15.30;99.90
19888;DHT22;10106;51.332;12.336;2023-03-23T15:19:11;15.30;99.90
19888;DHT22;10106;51.332;12.336;2023-03-23T15:21:47;15.20;99.90
19888;DHT22;10106;51.332;12.336;2023-03-23T15:24:40;15.20;99.90
19888;DHT22;10106;51.332;12.336;2023-03-23T15:29:32;15.10;99.90
19888;DHT22;10106;51.332;12.336;2023-03-23T15:31:57;15.10;99.90
19888;DHT22;10106;51.332;12.336;2023-03-23T15:34:36;15.10;99.90
19888;DHT22;10106;51.332;12.336;2023-03-23T15:37:29;15.00;99.90
19888;DHT22;10106;51.332;12.336;2023-03-23T15:39:57;15.00;99.90
19888;DHT22;10106;51.332;12.336;2023-03-23T15:42:32;15.00;99.90
19888;DHT22;10106;51.332;12.336;2023-03-23T15:45:16;14.90;99.90
19888;DHT22;10106;51.332;12.336;2023-03-23T15:47:49;14.90;99.90
19888;DHT22;10106;51.332;12.336;2023-03-23T15:52:53;15.00;99.90
19888;DHT22;10106;51.332;12.336;2023-03-23T15:55:20;15.00;99.90
19888;DHT22;10106;51.332;12.336;2023-03-23T15:57:46;15.00;99.90
19888;DHT22;10106;51.332;12.336;2023-03-23T16:00:14;15.00;99.90
19888;DHT22;10106;51.332;12.336;2023-03-23T16:02:40;15.00;99.90
19888;DHT22;10106;51.332;12.336;2023-03-23T16:05:11;15.00;99.90
19888;DHT22;10106;51.332;12.336;2023-03-23T16:07:37;15.00;99.90
19888;DHT22;10106;51.332;12.336;2023-03-23T16:10:04;15.00;99.90
19888;DHT22;10106;51.332;12.336;2023-03-23T16:12:30;15.00;99.90
19888;DHT22;10106;51.332;12.336;2023-03-23T16:14:55;15.00;99.90
19888;DHT22;10106;51.332;12.336;2023-03-23T16:17:21;15.00;99.90
19888;DHT22;10106;51.332;12.336;2023-03-23T16:19:47;15.00;99.90
19888;DHT22;10106;51.332;12.336;2023-03-23T16:22:12;15.10;99.90
19888;DHT22;10106;51.332;12.336;2023-03-23T16:24:38;15.00;99.90
19888;DHT22;10106;51.332;12.336;2023-03-23T16:27:04;15.00;99.90
19888;DHT22;10106;51.332;12.336;2023-03-23T16:29:30;14.90;99.90
19888;DHT22;10106;51.332;12.336;2023-03-23T16:31:57;14.80;99.90
19888;DHT22;10106;51.332;12.336;2023-03-23T16:34:22;14.70;99.90
19888;DHT22;10106;51.332;12.336;2023-03-23T16:36:49;14.60;99.90
19888;DHT22;10106;51.332;12.336;2023-03-23T16:39:14;14.50;99.90
19888;DHT22;10106;51.332;12.336;2023-03-23T16:41:43;14.50;99.90
19888;DHT22;10106;51.332;12.336;2023-03-23T16:44:09;14.50;99.90
19888;DHT22;10106;51.332;12.336;2023-03-23T16:46:35;14.50;99.90
19888;DHT22;10106;51.332;12.336;2023-03-23T16:49:01;14.50;99.90
19888;DHT22;10106;51.332;12.336;2023-03-23T16:51:27;14.50;99.90
19888;DHT22;10106;51.332;12.336;2023-03-23T16:53:53;14.40;99.90
19888;DHT22;10106;51.332;12.336;2023-03-23T16:56:18;14.40;99.90
19888;DHT22;10106;51.332;12.336;2023-03-23T16:58:44;14.40;99.90
19888;DHT22;10106;51.332;12.336;2023-03-23T17:01:10;14.40;99.90
19888;DHT22;10106;51.332;12.336;2023-03-23T17:03:36;14.30;99.90
19888;DHT22;10106;51.332;12.336;2023-03-23T17:06:02;14.30;99.90
19888;DHT22;10106;51.332;12.336;2023-03-23T17:08:29;14.30;99.90
19888;DHT22;10106;51.332;12.336;2023-03-23T17:10:58;14.20;99.90
19888;DHT22;10106;51.332;12.336;2023-03-23T17:13:23;14.20;99.90
19888;DHT22;10106;51.332;12.336;2023-03-23T17:15:54;14.10;99.90
19888;DHT22;10106;51.332;12.336;2023-03-23T17:18:21;14.10;99.90
19888;DHT22;10106;51.332;12.336;2023-03-23T17:20:47;14.00;99.90
19888;DHT22;10106;51.332;12.336;2023-03-23T17:23:13;14.00;99.90
19888;DHT22;10106;51.332;12.336;2023-03-23T17:25:38;13.90;99.90
19888;DHT22;10106;51.332;12.336;2023-03-23T17:28:05;13.90;99.90
19888;DHT22;10106;51.332;12.336;2023-03-23T17:30:31;13.80;99.90